createdAt,value
2018-05-10T00:00:10.880Z,60.50
2018-05-10T00:02:38.392Z,60.50
2018-05-10T00:05:05.883Z,60.60
2018-05-10T00:07:33.415Z,61.00
2018-05-10T00:10:01.724Z,60.30
2018-05-10T00:12:30.015Z,60.50
2018-05-10T00:14:57.519Z,60.50
2018-05-10T00:17:25.030Z,60.70
2018-05-10T00:19:52.524Z,60.80
2018-05-10T00:22:20.802Z,61.50
2018-05-10T00:24:49.080Z,61.40
2018-05-10T00:27:16.570Z,61.40
2018-05-10T00:29:44.867Z,61.80
2018-05-10T00:32:12.364Z,61.00
2018-05-10T00:34:39.883Z,61.20
2018-05-10T00:37:07.372Z,61.60
2018-05-10T00:39:35.663Z,61.90
2018-05-10T00:42:03.164Z,61.90
2018-05-10T00:44:30.696Z,63.10
2018-05-10T00:46:58.956Z,62.90
2018-05-10T00:49:26.484Z,62.90
2018-05-10T00:51:53.979Z,63.00
2018-05-10T00:54:33.244Z,63.10
2018-05-10T00:57:00.764Z,63.00
2018-05-10T00:59:28.279Z,63.10
2018-05-10T01:01:55.763Z,63.30
2018-05-10T01:04:23.280Z,63.10
2018-05-10T01:06:50.767Z,62.80
2018-05-10T01:09:18.279Z,62.70
2018-05-10T01:11:45.783Z,62.40
2018-05-10T01:14:14.063Z,61.50
2018-05-10T01:16:42.319Z,61.90
2018-05-10T01:19:09.827Z,61.90
2018-05-10T01:21:38.093Z,61.30
2018-05-10T01:24:05.611Z,61.30
2018-05-10T01:26:33.115Z,60.70
2018-05-10T01:29:00.631Z,60.80
2018-05-10T01:31:28.143Z,61.20
2018-05-10T01:33:55.667Z,61.50
2018-05-10T01:36:23.923Z,64.30
2018-05-10T01:38:51.440Z,64.30
2018-05-10T01:41:19.692Z,64.10
2018-05-10T01:43:47.204Z,64.10
2018-05-10T01:46:14.719Z,64.40
2018-05-10T01:48:42.240Z,65.10
2018-05-10T01:51:10.506Z,65.20
2018-05-10T01:53:38.000Z,65.20
2018-05-10T01:56:06.282Z,65.50
2018-05-10T01:58:34.550Z,65.90
2018-05-10T02:01:02.167Z,65.80
2018-05-10T02:03:29.671Z,66.10
2018-05-10T02:05:57.184Z,66.30
2018-05-10T02:08:25.475Z,66.60
2018-05-10T02:10:53.769Z,66.70
2018-05-10T02:13:22.019Z,67.00
2018-05-10T02:15:50.330Z,66.90
2018-05-10T02:18:17.830Z,66.90
2018-05-10T02:20:45.359Z,67.40
2018-05-10T02:23:12.867Z,67.10
2018-05-10T02:25:41.148Z,67.30
2018-05-10T02:28:09.411Z,67.70
2018-05-10T02:30:38.459Z,68.70
2018-05-10T02:33:05.964Z,68.00
2018-05-10T02:35:33.498Z,67.90
2018-05-10T02:38:01.783Z,67.50
2018-05-10T02:40:30.059Z,68.10
2018-05-10T02:42:57.559Z,68.10
2018-05-10T02:45:25.089Z,68.60
2018-05-10T02:47:53.383Z,69.30
2018-05-10T02:50:20.892Z,69.30
2018-05-10T02:52:48.404Z,69.30
2018-05-10T02:55:15.911Z,69.90
2018-05-10T02:57:44.166Z,70.10
2018-05-10T03:00:11.692Z,70.00
2018-05-10T03:02:39.183Z,70.10
2018-05-10T03:05:06.680Z,70.30
2018-05-10T03:07:34.220Z,70.40
2018-05-10T03:10:01.714Z,70.30
2018-05-10T03:12:29.266Z,70.00
2018-05-10T03:14:56.751Z,69.60
2018-05-10T03:17:24.264Z,69.80
2018-05-10T03:19:52.519Z,69.30
2018-05-10T03:22:20.061Z,69.00
2018-05-10T03:24:47.559Z,69.10
2018-05-10T03:27:15.068Z,69.10
2018-05-10T03:29:43.319Z,69.20
2018-05-10T03:32:10.831Z,69.20
2018-05-10T03:34:39.819Z,66.80
2018-05-10T03:37:07.347Z,67.50
2018-05-10T03:39:34.846Z,67.20
2018-05-10T03:42:02.395Z,66.80
2018-05-10T03:44:29.884Z,67.40
2018-05-10T03:46:57.395Z,67.10
2018-05-10T03:49:25.647Z,68.00
2018-05-10T03:51:53.161Z,67.90
2018-05-10T03:54:21.420Z,71.10
2018-05-10T03:56:48.951Z,71.00
2018-05-10T03:59:16.439Z,71.60
2018-05-10T04:01:43.980Z,72.60
2018-05-10T04:04:33.974Z,73.70
2018-05-10T04:07:13.352Z,74.00
2018-05-10T04:09:52.791Z,73.90
2018-05-10T04:12:20.328Z,74.00
2018-05-10T04:14:48.587Z,73.60
2018-05-10T04:17:16.123Z,73.40
2018-05-10T04:19:43.616Z,73.00
2018-05-10T04:22:11.133Z,71.90
2018-05-10T04:24:39.404Z,71.30
2018-05-10T04:27:06.942Z,71.20
2018-05-10T04:29:34.435Z,70.00
2018-05-10T04:32:02.274Z,69.40
2018-05-10T04:34:29.771Z,68.60
2018-05-10T04:36:57.263Z,68.80
2018-05-10T04:39:24.807Z,67.50
2018-05-10T04:41:52.304Z,67.60
2018-05-10T04:44:19.827Z,67.60
2018-05-10T04:46:47.323Z,67.70
2018-05-10T04:49:14.861Z,67.70
2018-05-10T04:51:42.348Z,67.80
2018-05-10T04:54:09.874Z,67.90
2018-05-10T04:56:37.364Z,67.60
2018-05-10T04:59:05.704Z,67.80
2018-05-10T05:01:33.201Z,67.80
2018-05-10T05:04:00.739Z,67.40
2018-05-10T05:06:28.231Z,66.50
2018-05-10T05:08:55.782Z,66.50
2018-05-10T05:11:23.263Z,66.80
2018-05-10T05:13:50.774Z,66.00
2018-05-10T05:16:19.060Z,65.70
2018-05-10T05:18:47.339Z,64.10
2018-05-10T05:21:14.832Z,64.10
2018-05-10T05:23:43.126Z,63.40
2018-05-10T05:26:10.629Z,63.40
2018-05-10T05:28:38.156Z,64.20
2018-05-10T05:31:06.414Z,64.00
2018-05-10T05:33:33.948Z,64.00
2018-05-10T05:36:01.451Z,64.80
2018-05-10T05:38:28.977Z,65.30
2018-05-10T05:40:56.471Z,65.30
2018-05-10T05:43:24.047Z,65.50
2018-05-10T05:45:51.515Z,65.90
2018-05-10T05:48:19.007Z,65.40
2018-05-10T05:50:46.523Z,65.50
2018-05-10T05:53:14.806Z,65.00
2018-05-10T05:55:43.085Z,65.60
2018-05-10T05:58:11.365Z,66.80
2018-05-10T06:00:38.993Z,66.30
2018-05-10T06:03:06.499Z,65.80
2018-05-10T06:05:34.017Z,64.30
2018-05-10T06:08:01.522Z,64.40
2018-05-10T06:10:29.039Z,63.60
2018-05-10T06:12:57.296Z,64.20
2018-05-10T06:15:24.909Z,64.20
2018-05-10T06:17:52.334Z,65.60
2018-05-10T06:20:19.847Z,65.50
2018-05-10T06:22:48.102Z,65.40
2018-05-10T06:25:15.655Z,65.40
2018-05-10T06:27:43.127Z,65.40
2018-05-10T06:30:10.637Z,66.40
2018-05-10T06:32:38.898Z,66.00
2018-05-10T06:35:06.420Z,65.40
2018-05-10T06:37:33.956Z,65.30
2018-05-10T06:40:01.577Z,66.00
2018-05-10T06:42:29.067Z,66.30
2018-05-10T06:44:56.580Z,66.10
2018-05-10T06:47:24.076Z,65.50
2018-05-10T06:49:51.596Z,65.60
2018-05-10T06:52:19.095Z,65.30
2018-05-10T06:54:47.360Z,65.20
2018-05-10T06:57:14.875Z,65.80
2018-05-10T06:59:43.137Z,65.40
2018-05-10T07:02:10.828Z,65.30
2018-05-10T07:04:39.088Z,66.90
2018-05-10T07:07:06.617Z,66.80
2018-05-10T07:09:34.232Z,67.50
2018-05-10T07:12:01.672Z,68.00
2018-05-10T07:14:29.226Z,68.30
2018-05-10T07:16:56.699Z,68.90
2018-05-10T07:19:24.211Z,69.20
2018-05-10T07:21:52.491Z,70.40
2018-05-10T07:24:19.991Z,70.40
2018-05-10T07:26:47.503Z,70.20
2018-05-10T07:29:15.035Z,70.30
2018-05-10T07:31:42.556Z,70.70
2018-05-10T07:34:10.067Z,70.70
2018-05-10T07:36:37.587Z,70.60
2018-05-10T07:39:05.137Z,69.90
2018-05-10T07:41:33.634Z,72.40
2018-05-10T07:44:01.904Z,73.00
2018-05-10T07:46:29.415Z,72.90
2018-05-10T07:48:56.900Z,73.10
2018-05-10T07:51:24.427Z,72.10
2018-05-10T07:53:52.679Z,71.00
2018-05-10T07:56:20.196Z,71.00
2018-05-10T07:58:48.606Z,69.70
2018-05-10T08:01:16.119Z,69.70
2018-05-10T08:03:43.650Z,69.30
2018-05-10T08:06:11.147Z,68.40
2018-05-10T08:08:38.656Z,68.50
2018-05-10T08:11:06.368Z,69.10
2018-05-10T08:13:33.938Z,69.60
2018-05-10T08:16:01.437Z,69.80
2018-05-10T08:18:28.947Z,69.40
2018-05-10T08:20:56.451Z,66.20
2018-05-10T08:23:23.959Z,64.80
2018-05-10T08:25:51.449Z,64.10
2018-05-10T08:28:19.001Z,64.40
2018-05-10T08:30:46.520Z,63.10
2018-05-10T08:33:14.812Z,62.00
2018-05-10T08:35:42.328Z,61.90
2018-05-10T08:38:09.851Z,61.90
2018-05-10T08:40:37.383Z,61.90
2018-05-10T08:43:05.689Z,61.80
2018-05-10T08:45:33.237Z,61.80
2018-05-10T08:48:00.767Z,61.30
2018-05-10T08:50:28.259Z,61.60
2018-05-10T08:52:55.776Z,61.60
2018-05-10T08:55:23.279Z,61.00
2018-05-10T08:57:50.787Z,60.50
2018-05-10T09:00:18.292Z,60.60
2018-05-10T09:02:45.836Z,60.40
2018-05-10T09:05:13.343Z,61.30
2018-05-10T09:07:41.623Z,61.00
2018-05-10T09:10:09.130Z,60.80
2018-05-10T09:12:36.619Z,60.10
2018-05-10T09:15:04.175Z,59.60
2018-05-10T09:17:31.671Z,59.80
2018-05-10T09:19:59.205Z,59.00
2018-05-10T09:22:26.703Z,59.10
2018-05-10T09:24:55.015Z,60.90
2018-05-10T09:27:22.511Z,60.80
2018-05-10T09:29:50.053Z,61.80
2018-05-10T09:32:17.539Z,62.20
2018-05-10T09:34:45.056Z,61.70
2018-05-10T09:37:12.539Z,61.30
2018-05-10T09:39:40.147Z,60.20
2018-05-10T09:42:07.714Z,61.00
2018-05-10T09:44:35.276Z,61.10
2018-05-10T09:47:02.780Z,60.00
2018-05-10T09:49:30.303Z,59.20
2018-05-10T09:51:57.799Z,59.50
2018-05-10T09:54:25.367Z,60.60
2018-05-10T09:56:52.859Z,61.30
2018-05-10T09:59:20.372Z,61.90
2018-05-10T10:01:47.867Z,61.00
2018-05-10T10:04:15.391Z,59.70
2018-05-10T10:06:43.644Z,59.00
2018-05-10T10:09:11.160Z,59.10
2018-05-10T10:11:39.480Z,60.00
2018-05-10T10:14:07.740Z,60.60
2018-05-10T10:16:36.004Z,60.80
2018-05-10T10:19:03.517Z,60.80
2018-05-10T10:21:31.014Z,61.10
2018-05-10T10:23:58.548Z,61.10
2018-05-10T10:26:26.804Z,61.90
2018-05-10T10:28:54.295Z,61.90
2018-05-10T10:31:22.588Z,63.50
2018-05-10T10:33:50.856Z,63.90
2018-05-10T10:36:18.377Z,63.90
2018-05-10T10:38:45.868Z,63.60
2018-05-10T10:41:13.412Z,64.10
2018-05-10T10:43:40.903Z,64.80
2018-05-10T10:46:09.287Z,64.40
2018-05-10T10:48:36.771Z,64.00
2018-05-10T10:51:04.326Z,62.40
2018-05-10T10:53:31.832Z,60.60
2018-05-10T10:55:59.360Z,60.70
2018-05-10T10:58:26.848Z,60.60
2018-05-10T11:00:54.369Z,59.40
2018-05-10T11:03:21.864Z,58.90
2018-05-10T11:05:49.380Z,58.60
2018-05-10T11:08:16.904Z,56.70
2018-05-10T11:10:44.424Z,57.00
2018-05-10T11:13:12.065Z,57.60
2018-05-10T11:15:40.566Z,57.50
2018-05-10T11:18:19.474Z,57.50
2018-05-10T12:18:01.996Z,61.40
2018-05-10T12:48:40.870Z,66.60
2018-05-10T12:51:10.366Z,67.40
2018-05-10T12:53:43.139Z,68.40
2018-05-10T12:56:12.732Z,69.30
2018-05-10T12:58:40.138Z,68.80
2018-05-10T13:01:07.634Z,69.30
2018-05-10T13:03:35.161Z,69.30
2018-05-10T13:06:02.648Z,68.50
2018-05-10T13:08:31.061Z,69.50
2018-05-10T13:10:58.458Z,69.30
2018-05-10T13:13:26.011Z,70.00
2018-05-10T13:15:53.495Z,69.70
2018-05-10T13:18:21.039Z,69.00
2018-05-10T13:20:49.291Z,70.20
2018-05-10T13:23:16.840Z,70.20
2018-05-10T13:25:44.333Z,70.40
2018-05-10T13:28:11.879Z,70.20
2018-05-10T13:30:39.383Z,69.20
2018-05-10T13:33:06.976Z,68.80
2018-05-10T13:35:34.443Z,68.90
2018-05-10T13:38:03.463Z,68.70
2018-05-10T13:40:31.868Z,68.70
2018-05-10T13:42:59.393Z,69.00
2018-05-10T13:45:26.931Z,69.40
2018-05-10T13:47:54.437Z,70.10
2018-05-10T13:50:21.955Z,69.50
2018-05-10T13:52:49.792Z,70.00
2018-05-10T13:55:17.327Z,70.20
2018-05-10T13:57:44.824Z,72.00
2018-05-10T14:00:12.359Z,72.80
2018-05-10T14:02:39.863Z,73.90
2018-05-10T14:05:07.417Z,73.80
2018-05-10T14:07:34.912Z,72.90
2018-05-10T14:10:02.447Z,72.70
2018-05-10T14:12:29.943Z,72.90
2018-05-10T14:14:57.465Z,73.50
2018-05-10T14:17:25.729Z,73.90
2018-05-10T14:19:53.277Z,74.00
2018-05-10T14:22:20.821Z,74.60
2018-05-10T14:24:48.334Z,74.90
2018-05-10T14:27:17.338Z,75.50
2018-05-10T14:29:44.945Z,75.50
2018-05-10T14:32:13.226Z,76.20
2018-05-10T14:34:41.511Z,75.90
2018-05-10T14:37:09.016Z,75.80
2018-05-10T14:39:36.581Z,76.60
2018-05-10T14:42:04.820Z,77.60
2018-05-10T14:44:32.348Z,77.60
2018-05-10T14:46:59.864Z,78.60
2018-05-10T14:49:27.363Z,80.80
2018-05-10T14:51:55.640Z,84.70
2018-05-10T14:54:23.905Z,87.90
2018-05-10T14:56:51.423Z,88.00
2018-05-10T14:59:19.683Z,88.40
2018-05-10T15:01:47.217Z,88.50
2018-05-10T15:04:14.717Z,91.40
2018-05-10T15:06:42.272Z,91.40
2018-05-10T15:09:09.768Z,92.30
2018-05-10T15:11:37.283Z,93.40
2018-05-10T15:14:04.790Z,93.50
2018-05-10T15:16:32.327Z,95.40
2018-05-10T15:18:59.824Z,94.00
2018-05-10T15:21:27.356Z,94.50
2018-05-10T15:23:54.848Z,94.20
2018-05-10T15:26:22.616Z,93.70
2018-05-10T15:28:50.190Z,95.90
2018-05-10T15:31:17.737Z,94.30
2018-05-10T15:33:46.003Z,94.00
2018-05-10T15:36:13.532Z,94.00
2018-05-10T15:38:41.040Z,93.10
2018-05-10T15:41:08.559Z,92.70
2018-05-10T15:43:36.061Z,93.90
2018-05-10T15:46:03.620Z,92.90
2018-05-10T15:48:31.154Z,93.90
2018-05-10T15:50:59.431Z,93.30
2018-05-10T15:53:26.929Z,93.20
2018-05-10T15:55:54.460Z,94.30
2018-05-10T15:58:21.993Z,94.90
2018-05-10T16:00:49.511Z,94.00
2018-05-10T16:03:17.073Z,93.30
2018-05-10T16:05:44.604Z,93.40
2018-05-10T16:08:12.128Z,94.00
2018-05-10T16:10:39.628Z,93.30
2018-05-10T16:13:07.157Z,92.80
2018-05-10T16:15:34.659Z,92.70
2018-05-10T16:18:02.206Z,93.40
2018-05-10T16:20:30.534Z,93.40
2018-05-10T16:22:58.057Z,93.40
2018-05-10T16:25:25.562Z,93.20
2018-05-10T16:27:53.851Z,92.60
2018-05-10T16:30:21.349Z,92.60
2018-05-10T16:32:48.916Z,92.00
2018-05-10T16:35:16.437Z,92.00
2018-05-10T16:37:43.963Z,92.10
2018-05-10T16:40:11.483Z,91.80
2018-05-10T16:42:39.015Z,92.00
2018-05-10T16:45:06.503Z,92.40
2018-05-10T16:47:34.033Z,91.60
2018-05-10T16:50:01.535Z,91.60
2018-05-10T16:52:29.072Z,91.80
2018-05-10T16:54:56.600Z,92.50
2018-05-10T16:57:24.135Z,92.40
2018-05-10T16:59:51.644Z,93.20
2018-05-10T17:02:19.182Z,92.50
2018-05-10T17:04:46.684Z,92.50
2018-05-10T17:07:14.236Z,92.30
2018-05-10T17:09:41.728Z,92.90
2018-05-10T17:12:09.279Z,92.50
2018-05-10T17:14:37.949Z,92.40
2018-05-10T17:17:05.468Z,93.10
2018-05-10T17:19:33.011Z,92.10
2018-05-10T17:22:00.519Z,92.00
2018-05-10T17:24:28.100Z,92.50
2018-05-10T17:26:55.639Z,92.50
2018-05-10T17:29:23.160Z,92.50
2018-05-10T17:31:51.474Z,92.40
2018-05-10T17:34:19.000Z,92.40
2018-05-10T17:36:46.492Z,92.50
2018-05-10T17:39:14.016Z,92.50
2018-05-10T17:41:41.530Z,93.70
2018-05-10T17:44:09.818Z,93.30
2018-05-10T17:46:38.117Z,92.90
2018-05-10T17:49:05.654Z,92.90
2018-05-10T17:51:33.143Z,92.70
2018-05-10T17:54:00.669Z,92.60
2018-05-10T17:56:28.172Z,92.70
2018-05-10T17:58:55.712Z,92.90
2018-05-10T18:01:23.219Z,92.90
2018-05-10T18:03:50.996Z,92.50
2018-05-10T18:06:18.511Z,92.60
2018-05-10T18:08:46.031Z,92.30
2018-05-10T18:11:13.548Z,92.20
2018-05-10T18:13:41.116Z,93.20
2018-05-10T18:16:08.624Z,93.20
2018-05-10T18:18:36.496Z,92.70
2018-05-10T18:21:04.009Z,92.20
2018-05-10T18:23:31.581Z,92.60
2018-05-10T18:25:59.049Z,93.10
2018-05-10T18:28:26.596Z,92.60
2018-05-10T18:30:54.133Z,92.70
2018-05-10T18:33:21.723Z,92.50
2018-05-10T18:35:49.215Z,92.10
2018-05-10T18:38:16.714Z,91.90
2018-05-10T18:40:45.165Z,91.80
2018-05-10T18:43:12.611Z,91.90
2018-05-10T18:45:40.132Z,91.90
2018-05-10T18:48:07.628Z,91.10
2018-05-10T18:50:35.908Z,90.80
2018-05-10T18:53:03.417Z,90.80
2018-05-10T18:55:31.020Z,90.40
2018-05-10T18:57:59.315Z,90.80
2018-05-10T19:00:26.861Z,90.70
2018-05-10T19:02:54.368Z,90.50
2018-05-10T19:05:21.879Z,91.10
2018-05-10T19:07:49.564Z,90.70
2018-05-10T19:10:17.092Z,90.20
2018-05-10T19:12:44.653Z,90.20
2018-05-10T19:15:12.203Z,90.10
2018-05-10T19:17:39.703Z,90.00
2018-05-10T19:20:07.235Z,88.70
2018-05-10T19:22:34.735Z,88.80
2018-05-10T19:25:02.266Z,87.00
2018-05-10T19:27:29.795Z,87.30
2018-05-10T19:29:57.299Z,87.10
2018-05-10T19:32:25.791Z,86.70
2018-05-10T19:34:54.052Z,87.20
2018-05-10T19:37:21.580Z,87.20
2018-05-10T19:39:49.133Z,87.10
2018-05-10T19:42:16.676Z,86.40
2018-05-10T19:44:44.979Z,84.90
2018-05-10T19:47:13.262Z,85.00
2018-05-10T19:49:41.529Z,85.20
2018-05-10T19:52:09.055Z,85.10
2018-05-10T19:54:36.600Z,85.50
2018-05-10T19:57:04.922Z,85.30
2018-05-10T19:59:32.415Z,85.30
2018-05-10T20:01:59.940Z,84.80
2018-05-10T20:04:28.199Z,85.20
2018-05-10T20:06:55.719Z,85.20
2018-05-10T20:09:23.219Z,84.90
2018-05-10T20:11:50.788Z,85.10
2018-05-10T20:14:18.299Z,86.00
2018-05-10T20:16:45.945Z,85.80
2018-05-10T20:19:13.440Z,85.00
2018-05-10T20:21:40.976Z,84.90
2018-05-10T20:24:08.658Z,85.00
2018-05-10T20:26:36.793Z,85.20
2018-05-10T20:29:05.074Z,85.30
2018-05-10T20:31:33.375Z,85.80
2018-05-10T20:34:01.739Z,85.00
2018-05-10T20:36:29.268Z,85.00
2018-05-10T20:38:56.775Z,85.00
2018-05-10T20:41:24.271Z,85.00
2018-05-10T20:43:51.787Z,85.00
2018-05-10T20:46:19.291Z,85.60
2018-05-10T20:48:46.819Z,85.00
2018-05-10T20:51:14.346Z,84.90
2018-05-10T20:53:41.878Z,85.00
2018-05-10T20:56:09.398Z,85.00
2018-05-10T20:58:37.700Z,85.00
2018-05-10T21:01:05.204Z,84.90
2018-05-10T21:03:32.822Z,84.40
2018-05-10T21:06:00.252Z,84.80
2018-05-10T21:08:27.767Z,84.30
2018-05-10T21:10:56.040Z,85.00
2018-05-10T21:13:23.575Z,84.90
2018-05-10T21:15:51.329Z,85.00
2018-05-10T21:18:18.848Z,83.80
2018-05-10T21:20:46.351Z,83.80
2018-05-10T21:23:14.743Z,83.40
2018-05-10T21:25:42.172Z,83.20
2018-05-10T21:28:09.699Z,83.00
2018-05-10T21:30:37.205Z,82.60
2018-05-10T21:33:04.719Z,82.70
2018-05-10T21:35:32.228Z,82.90
2018-05-10T21:37:59.765Z,83.90
2018-05-10T21:40:28.041Z,83.60
2018-05-10T21:42:55.592Z,83.60
2018-05-10T21:45:23.075Z,83.70
2018-05-10T21:47:50.598Z,83.30
2018-05-10T21:50:18.107Z,82.90
2018-05-10T21:52:45.674Z,83.00
2018-05-10T21:55:13.945Z,83.20
2018-05-10T21:57:41.488Z,83.20
2018-05-10T22:00:08.989Z,83.70
2018-05-10T22:02:36.483Z,83.00
2018-05-10T22:05:04.768Z,83.70
2018-05-10T22:07:32.273Z,83.80
2018-05-10T22:09:59.797Z,84.30
2018-05-10T22:12:27.293Z,85.10
2018-05-10T22:14:54.821Z,84.70
2018-05-10T22:17:22.323Z,85.60
2018-05-10T22:19:49.836Z,85.10
2018-05-10T22:22:18.128Z,83.80
2018-05-10T22:24:46.451Z,83.50
2018-05-10T22:27:13.963Z,83.50
2018-05-10T22:29:41.487Z,83.50
2018-05-10T22:32:08.983Z,83.90
2018-05-10T22:34:36.504Z,83.60
2018-05-10T22:37:04.774Z,83.90
2018-05-10T22:39:32.289Z,83.80
2018-05-10T22:41:59.837Z,83.20
2018-05-10T22:44:28.204Z,83.60
2018-05-10T22:46:56.405Z,84.70
2018-05-10T22:49:23.922Z,84.80
2018-05-10T22:51:51.416Z,83.80
2018-05-10T22:54:18.923Z,82.70
2018-05-10T22:56:47.199Z,83.50
2018-05-10T22:59:14.727Z,83.50
2018-05-10T23:01:42.221Z,82.60
2018-05-10T23:04:09.725Z,82.90
2018-05-10T23:06:38.016Z,82.80
2018-05-10T23:09:06.272Z,82.40
2018-05-10T23:11:33.792Z,82.40
2018-05-10T23:14:01.321Z,82.60
2018-05-10T23:16:28.823Z,82.50
2018-05-10T23:18:57.092Z,82.50
2018-05-10T23:21:24.644Z,82.50
2018-05-10T23:23:52.135Z,82.20
2018-05-10T23:26:19.700Z,82.00
2018-05-10T23:28:47.211Z,82.20
2018-05-10T23:31:14.740Z,82.00
2018-05-10T23:33:43.024Z,82.50
2018-05-10T23:36:10.544Z,82.50
2018-05-10T23:38:38.048Z,82.20
2018-05-10T23:41:05.564Z,82.00
2018-05-10T23:43:33.828Z,82.80
2018-05-10T23:46:01.353Z,82.80
2018-05-10T23:48:28.870Z,82.10
2018-05-10T23:50:56.388Z,83.20
2018-05-10T23:53:23.894Z,82.80
2018-05-10T23:55:51.424Z,83.20
2018-05-10T23:58:19.700Z,83.20
